Terminal Aerodrome Forecast
Issued by NWS Bismarck, ND

Home | Current Version | Previous Version | Text Only | Print | Product List | Glossary On
Versions: 1 2 3 4 5 6 7 8 9 10 11 12 13 14 15 16 17 18
000
FTUS43 KBIS 071732
TAFBIS
TAF
KBIS 071732Z 0718/0818 18011KT P6SM SKC
     FM072100 17010KT P6SM SCT050
     FM080300 15006KT P6SM -SHRA BKN050 OVC100
     FM080900 VRB05KT P6SM SCT050 BKN100
     FM081600 32006KT P6SM SCT035=

USA.gov is the U.S. government's official web portal to all federal, state and local government web resources and services.